Terminal Aerodrome Forecast
Issued by NWS

Home | Current Version | Previous Version | Graphics & Text | Print | Product List | Glossary On
Versions: 1 2 3 4 5 6 7 8 9 10 11 12 13 14 15 16 17 18 19
000
FTUS43 KGRB 271435 AAA
TAFCWA
TAF AMD
KCWA 271435Z 2715/2812 31009G15KT 4SM RA SCT005 OVC016
      TEMPO 2715/2717 2SM -RASNPL BR BKN006
     FM271700 29012G20KT 5SM -SNDZ OVC011
     FM272000 27011G19KT P6SM OVC016
     FM280400 25009KT P6SM BKN018
     FM280700 25007KT P6SM SCT024=

USA.gov is the U.S. government's official web portal to all federal, state and local government web resources and services.